Thursday, September 20, 2018, 8:40 AM EDT
Back to Local

KPTW, Pottstown Limerick Airport

Location: Royersford, PA, United States Lat: 40.233
Local Time: 8:40 AM EDT (12:40 GMT) Lon: -75.55
Time Zone: US/Eastern Elev: 291 ft

Show me the last for .
Show Decoded

2018-09-20 08:11 METAR KPTW 201211Z AUTO 00000KT 2 1/2SM -RA BR OVC009 18/18 A3019 RMK AO2 P0001
                 T01830178 =
2018-09-20 07:54 METAR KPTW 201154Z AUTO 00000KT 6SM -RA BR OVC010 18/18 A3019 RMK AO2 RAB50
                 SLP218 P0000 60000 T01830178 10183 20161 51027 =
2018-09-20 06:54 METAR KPTW 201054Z AUTO 00000KT 10SM OVC010 18/17 A3016 RMK AO2 SLP210 T01830172
                 =
2018-09-20 05:54 METAR KPTW 200954Z AUTO 00000KT 10SM OVC011 18/17 A3013 RMK AO2 SLP199 T01780167
                 =
2018-09-20 04:54 METAR KPTW 200854Z AUTO 00000KT 10SM BKN013 BKN026 17/17 A3011 RMK AO2 SLP190
                 T01720167 53003 =
2018-09-20 04:09 METAR KPTW 200809Z AUTO 05004KT 10SM BKN013 BKN029 17/16 A3010 RMK AO2 T01720161
                 =
2018-09-20 04:01 METAR KPTW 200801Z AUTO 05003KT 10SM SCT013 BKN027 17/16 A3010 RMK AO2 T01720161
                 =
2018-09-20 03:54 METAR KPTW 200754Z AUTO 05003KT 10SM FEW013 SCT025 BKN030 17/16 A3010 RMK AO2
                 SLP188 T01720161 =
2018-09-20 03:26 METAR KPTW 200726Z AUTO 04005KT 10SM BKN016 OVC021 18/17 A3010 RMK AO2 T01780167
                 =
2018-09-20 03:12 METAR KPTW 200712Z AUTO 05005KT 10SM BKN014 18/16 A3010 RMK AO2 T01780161 =
2018-09-20 02:54 METAR KPTW 200654Z AUTO 03004KT 10SM BKN017 17/16 A3009 RMK AO2 SLP186 T01720161
                 =
2018-09-20 01:54 METAR KPTW 200554Z AUTO 00000KT 10SM FEW021 17/16 A3010 RMK AO2 SLP187 T01670161
                 10217 20161 51010 =
2018-09-20 00:54 METAR KPTW 200454Z AUTO 00000KT 10SM CLR 17/16 A3009 RMK AO2 SLP185 T01670161
                 402720161 =
2018-09-19 23:54 METAR KPTW 200354Z AUTO 00000KT 10SM CLR 19/16 A3008 RMK AO2 SLP180 T01940156 =
2018-09-19 22:54 METAR KPTW 200254Z AUTO 02006KT 10SM CLR 21/16 A3007 RMK AO2 SLP176 T02060156
                 51021 =
2018-09-19 21:54 METAR KPTW 200154Z AUTO 03006KT 10SM CLR 21/16 A3004 RMK AO2 SLP169 T02060156 =
2018-09-19 20:54 METAR KPTW 200054Z AUTO 02004KT 10SM CLR 21/16 A3003 RMK AO2 SLP165 T02110161 =
2018-09-19 19:54 METAR KPTW 192354Z AUTO 00000KT 10SM CLR 21/17 A3000 RMK AO2 SLP156 T02110167
                 10272 20211 53014 =
2018-09-19 18:54 METAR KPTW 192254Z AUTO 01003KT 9SM CLR 23/17 A2998 RMK AO2 SLP149 T02330172 =
2018-09-19 17:54 METAR KPTW 192154Z AUTO 02003KT 9SM CLR 26/17 A2997 RMK AO2 SLP144 T02560167 =
2018-09-19 16:54 METAR KPTW 192054Z AUTO 34006KT 9SM CLR 27/16 A2996 RMK AO2 SLP141 T02670156
                 53003 =
2018-09-19 15:54 METAR KPTW 191954Z AUTO 31006KT 9SM CLR 27/16 A2995 RMK AO2 SLP138 T02670161 =
2018-09-19 14:54 METAR KPTW 191854Z AUTO 35008KT 9SM CLR 27/17 A2995 RMK AO2 SLP137 T02670167 =
2018-09-19 13:54 METAR KPTW 191754Z AUTO 31007KT 9SM FEW041 27/17 A2995 RMK AO2 SLP137 T02670172
                 10267 20194 58001 =
2018-09-19 12:54 METAR KPTW 191654Z AUTO 02006KT 9SM FEW035 26/18 A2996 RMK AO2 SLP140 T02610183
                 =
2018-09-19 11:54 METAR KPTW 191554Z AUTO 35005KT 8SM CLR 24/18 A2995 RMK AO2 SLP138 T02440178 =
2018-09-19 10:54 METAR KPTW 191454Z AUTO 33009KT 8SM CLR 24/18 A2995 RMK AO2 SLP138 T02440183
                 51014 =
2018-09-19 09:54 METAR KPTW 191354Z AUTO 36010KT 8SM CLR 23/18 A2995 RMK AO2 SLP136 T02280183 =
2018-09-19 08:54 METAR KPTW 191254Z AUTO 36007KT 8SM CLR 22/19 A2993 RMK AO2 SLP130 T02170189 =

Support USWX by starting your Amazon purchase here.